createdAt,value
2023-02-23T00:01:56.660Z,5.40
2023-02-23T00:04:25.156Z,6.10
2023-02-23T00:06:53.672Z,5.50
2023-02-23T00:09:24.842Z,7.30
2023-02-23T00:11:56.898Z,3.50
2023-02-23T00:14:27.509Z,4.90
2023-02-23T00:16:58.104Z,6.10
2023-02-23T00:19:26.335Z,5.80
2023-02-23T00:21:54.407Z,6.20
2023-02-23T00:24:23.362Z,6.00
2023-02-23T00:26:51.708Z,5.80
2023-02-23T00:29:24.834Z,5.90
2023-02-23T00:31:53.072Z,6.00
2023-02-23T00:34:21.594Z,6.00
2023-02-23T00:36:50.928Z,6.20
2023-02-23T00:39:21.856Z,6.20
2023-02-23T00:41:50.137Z,5.60
2023-02-23T00:44:18.366Z,7.10
2023-02-23T00:46:49.513Z,7.20
2023-02-23T00:49:17.769Z,5.70
2023-02-23T00:51:45.723Z,6.10
2023-02-23T00:54:14.370Z,6.00
2023-02-23T00:56:42.752Z,6.00
2023-02-23T00:59:11.171Z,6.00
2023-02-23T01:01:39.270Z,6.20
2023-02-23T01:04:07.616Z,6.10
2023-02-23T01:06:37.903Z,6.70
2023-02-23T01:09:10.587Z,6.30
2023-02-23T01:11:41.520Z,6.20
2023-02-23T01:14:09.981Z,5.80
2023-02-23T01:16:39.165Z,6.10
2023-02-23T01:19:07.331Z,6.30
2023-02-23T01:21:41.205Z,6.40
2023-02-23T01:24:09.454Z,5.30
2023-02-23T01:26:39.472Z,6.10
2023-02-23T01:29:09.650Z,6.30
2023-02-23T01:31:42.744Z,5.80
2023-02-23T01:34:12.093Z,6.20
2023-02-23T01:36:41.060Z,5.70
2023-02-23T01:39:12.323Z,6.10
2023-02-23T01:41:44.911Z,6.00
2023-02-23T01:44:12.867Z,6.30
2023-02-23T01:46:45.457Z,6.20
2023-02-23T01:49:15.931Z,6.70
2023-02-23T01:51:49.683Z,6.80
2023-02-23T01:54:20.120Z,6.00
2023-02-23T01:56:58.212Z,6.30
2023-02-23T01:59:35.347Z,6.30
2023-02-23T02:02:05.420Z,6.80
2023-02-23T02:04:44.044Z,5.70
2023-02-23T02:07:23.036Z,6.80
2023-02-23T02:10:13.225Z,6.50
2023-02-23T02:12:42.316Z,6.50
2023-02-23T02:15:17.364Z,6.60
2023-02-23T02:17:58.079Z,6.30
2023-02-23T02:20:52.639Z,6.50
2023-02-23T02:23:53.602Z,6.30
2023-02-23T02:26:33.617Z,6.20
2023-02-23T02:29:19.600Z,5.70
2023-02-23T02:32:11.320Z,6.10
2023-02-23T02:34:48.437Z,6.50
2023-02-23T02:37:17.213Z,5.90
2023-02-23T02:40:15.062Z,4.30
2023-02-23T02:42:49.072Z,5.90
2023-02-23T02:45:32.159Z,6.00
2023-02-23T02:48:21.714Z,6.30
2023-02-23T02:50:56.505Z,6.10
2023-02-23T02:53:30.782Z,5.70
2023-02-23T02:56:00.474Z,5.00
2023-02-23T02:58:28.781Z,5.60
2023-02-23T03:01:15.167Z,6.30
2023-02-23T03:04:03.187Z,5.60
2023-02-23T03:06:57.514Z,5.40
2023-02-23T03:10:02.756Z,5.10
2023-02-23T03:13:10.631Z,6.20
2023-02-23T03:16:09.206Z,4.70
2023-02-23T03:19:25.194Z,7.20
2023-02-23T03:22:33.563Z,5.50
2023-02-23T03:25:36.642Z,5.00
2023-02-23T03:28:38.663Z,6.00
2023-02-23T03:31:39.028Z,5.30
2023-02-23T03:34:33.350Z,6.60
2023-02-23T03:37:37.123Z,5.50
2023-02-23T03:40:30.507Z,5.50
2023-02-23T03:43:18.030Z,5.00
2023-02-23T03:46:05.031Z,5.30
2023-02-23T03:48:52.384Z,5.40
2023-02-23T03:51:39.605Z,5.90
2023-02-23T03:54:37.167Z,5.40
2023-02-23T03:57:24.629Z,5.40
2023-02-23T04:00:14.150Z,5.50
2023-02-23T04:03:01.029Z,6.00
2023-02-23T04:05:47.504Z,6.30
2023-02-23T04:08:34.941Z,6.20
2023-02-23T04:11:30.924Z,5.60
2023-02-23T04:14:00.765Z,6.00
2023-02-23T04:16:29.048Z,6.30
2023-02-23T04:18:57.117Z,6.20
2023-02-23T04:21:25.311Z,5.70
2023-02-23T04:23:53.321Z,6.40
2023-02-23T04:26:21.363Z,7.00
2023-02-23T04:28:49.319Z,6.40
2023-02-23T04:31:19.073Z,5.60
2023-02-23T04:33:47.222Z,6.30
2023-02-23T04:36:15.483Z,6.90
2023-02-23T04:38:43.545Z,6.10
2023-02-23T04:41:11.542Z,7.10
2023-02-23T04:43:39.549Z,6.40
2023-02-23T04:46:07.758Z,6.50
2023-02-23T04:48:36.172Z,6.70
2023-02-23T04:51:04.519Z,5.60
2023-02-23T04:53:32.568Z,7.60
2023-02-23T04:56:00.602Z,6.30
2023-02-23T04:58:29.626Z,6.90
2023-02-23T05:01:04.801Z,5.80
2023-02-23T05:03:32.866Z,7.40
2023-02-23T05:06:01.027Z,6.40
2023-02-23T05:08:28.999Z,6.60
2023-02-23T05:10:57.037Z,6.00
2023-02-23T05:13:25.103Z,6.80
2023-02-23T05:15:57.706Z,6.50
2023-02-23T05:18:26.555Z,7.00
2023-02-23T05:20:54.630Z,6.90
2023-02-23T05:23:22.873Z,7.90
2023-02-23T05:25:50.823Z,7.40
2023-02-23T05:28:18.755Z,8.70
2023-02-23T05:30:46.815Z,8.90
2023-02-23T05:33:18.199Z,6.00
2023-02-23T05:35:46.583Z,8.50
2023-02-23T05:38:14.551Z,8.90
2023-02-23T05:40:42.471Z,10.40
2023-02-23T05:43:10.540Z,9.50
2023-02-23T05:45:42.112Z,10.60
2023-02-23T05:48:11.008Z,7.70
2023-02-23T05:50:39.409Z,8.80
2023-02-23T05:53:07.445Z,8.10
2023-02-23T05:55:36.213Z,8.70
2023-02-23T05:58:04.468Z,8.10
2023-02-23T06:00:32.574Z,8.10
2023-02-23T06:03:00.763Z,7.90
2023-02-23T06:05:28.952Z,7.30
2023-02-23T06:07:57.166Z,7.90
2023-02-23T06:10:25.326Z,6.60
2023-02-23T06:12:53.349Z,6.80
2023-02-23T06:15:21.308Z,5.90
2023-02-23T06:17:49.293Z,7.00
2023-02-23T06:20:17.442Z,6.80
2023-02-23T06:22:45.747Z,6.70
2023-02-23T06:25:13.834Z,6.50
2023-02-23T06:27:42.387Z,5.90
2023-02-23T06:30:11.446Z,6.50
2023-02-23T06:32:40.242Z,6.00
2023-02-23T06:35:10.716Z,7.10
2023-02-23T06:37:38.890Z,6.90
2023-02-23T06:40:07.571Z,7.10
2023-02-23T06:42:36.787Z,6.70
2023-02-23T06:45:05.284Z,8.10
2023-02-23T06:47:33.760Z,7.00
2023-02-23T06:50:03.465Z,6.80
2023-02-23T06:52:31.710Z,6.60
2023-02-23T06:54:59.858Z,6.10
2023-02-23T06:57:27.884Z,7.30
2023-02-23T06:59:56.116Z,7.70
2023-02-23T07:02:24.326Z,6.60
2023-02-23T07:04:52.333Z,7.40
2023-02-23T07:07:20.513Z,7.70
2023-02-23T07:09:48.663Z,7.60
2023-02-23T07:12:17.087Z,6.90
2023-02-23T07:14:45.264Z,8.10
2023-02-23T07:17:13.317Z,7.80
2023-02-23T07:19:41.298Z,6.80
2023-02-23T07:22:09.444Z,7.10
2023-02-23T07:24:38.805Z,7.70
2023-02-23T07:27:06.836Z,7.30
2023-02-23T07:29:34.850Z,7.70
2023-02-23T07:32:03.086Z,8.20
2023-02-23T07:34:31.141Z,7.50
2023-02-23T07:36:59.224Z,7.60
2023-02-23T07:39:27.443Z,7.00
2023-02-23T07:41:55.352Z,7.10
2023-02-23T07:44:24.631Z,6.90
2023-02-23T07:46:55.544Z,7.80
2023-02-23T07:49:25.545Z,7.10
2023-02-23T07:51:53.963Z,7.60
2023-02-23T07:54:22.750Z,7.30
2023-02-23T07:56:50.943Z,7.40
2023-02-23T07:59:19.060Z,8.10
2023-02-23T08:01:47.048Z,7.70
2023-02-23T08:04:15.078Z,7.30
2023-02-23T08:06:43.069Z,7.10
2023-02-23T08:09:11.195Z,7.90
2023-02-23T08:11:41.250Z,6.70
2023-02-23T08:14:10.665Z,7.50
2023-02-23T08:16:38.995Z,7.60
2023-02-23T08:19:06.938Z,7.70
2023-02-23T08:21:35.012Z,7.90
2023-02-23T08:24:03.181Z,8.70
2023-02-23T08:26:31.205Z,8.70
2023-02-23T08:28:59.269Z,9.50
2023-02-23T08:31:27.842Z,8.20
2023-02-23T08:33:56.119Z,7.80
2023-02-23T08:36:24.250Z,8.30
2023-02-23T08:38:54.499Z,7.90
2023-02-23T08:41:22.579Z,7.60
2023-02-23T08:43:50.867Z,6.60
2023-02-23T08:46:20.584Z,8.80
2023-02-23T08:48:49.683Z,8.40
2023-02-23T08:51:18.893Z,7.30
2023-02-23T08:53:47.300Z,8.20
2023-02-23T08:56:15.588Z,7.00
2023-02-23T08:58:44.043Z,8.00
2023-02-23T09:01:18.141Z,8.30
2023-02-23T09:03:46.654Z,7.10
2023-02-23T09:06:17.343Z,11.10
2023-02-23T09:08:46.136Z,11.50
2023-02-23T09:11:14.247Z,9.70
2023-02-23T09:13:42.403Z,9.90
2023-02-23T09:16:10.462Z,9.60
2023-02-23T09:18:38.616Z,8.80
2023-02-23T09:21:19.112Z,8.10
2023-02-23T09:23:49.786Z,8.60
2023-02-23T09:26:19.121Z,8.40
2023-02-23T09:28:50.647Z,9.70
2023-02-23T09:31:20.792Z,9.20
2023-02-23T09:33:49.353Z,8.70
2023-02-23T09:36:22.534Z,9.00
2023-02-23T09:38:55.249Z,8.40
2023-02-23T09:41:26.244Z,9.30
2023-02-23T09:44:04.284Z,10.00
2023-02-23T09:46:32.210Z,9.20
2023-02-23T09:49:01.480Z,10.10
2023-02-23T09:51:29.760Z,10.30
2023-02-23T09:53:58.449Z,9.60
2023-02-23T09:56:36.473Z,10.50
2023-02-23T09:59:14.796Z,8.40
2023-02-23T10:01:48.998Z,10.40
2023-02-23T10:04:31.459Z,11.90
2023-02-23T10:07:07.059Z,10.10
2023-02-23T10:09:54.863Z,8.40
2023-02-23T10:12:39.236Z,9.70
2023-02-23T10:15:13.197Z,10.40
2023-02-23T10:18:06.770Z,10.80
2023-02-23T10:20:34.774Z,12.00
2023-02-23T10:23:05.071Z,11.10
2023-02-23T10:25:36.032Z,10.20
2023-02-23T10:28:04.218Z,10.80
2023-02-23T10:30:33.679Z,10.20
2023-02-23T10:33:13.921Z,10.30
2023-02-23T10:35:41.946Z,9.60
2023-02-23T10:38:15.194Z,10.30
2023-02-23T10:40:43.817Z,10.90
2023-02-23T10:43:12.738Z,10.00
2023-02-23T10:45:48.866Z,10.40
2023-02-23T10:48:24.701Z,10.40
2023-02-23T10:50:54.264Z,9.10
2023-02-23T10:53:26.856Z,9.90
2023-02-23T10:56:13.448Z,11.80
2023-02-23T10:58:46.613Z,10.10
2023-02-23T11:02:00.946Z,9.50
2023-02-23T11:04:31.201Z,10.40
2023-02-23T11:07:21.135Z,12.60
2023-02-23T11:09:51.622Z,11.00
2023-02-23T11:12:29.918Z,10.70
2023-02-23T11:14:58.062Z,10.00
2023-02-23T11:17:36.575Z,12.40
2023-02-23T11:20:05.955Z,11.60
2023-02-23T11:22:35.689Z,11.20
2023-02-23T11:25:12.771Z,11.20
2023-02-23T11:27:45.788Z,11.10
2023-02-23T11:30:14.052Z,11.70
2023-02-23T11:32:42.656Z,11.80
2023-02-23T11:35:21.331Z,11.90
2023-02-23T11:37:49.567Z,10.80
2023-02-23T11:40:20.197Z,11.30
2023-02-23T11:42:53.596Z,11.50
2023-02-23T11:45:22.524Z,11.40
2023-02-23T11:47:54.768Z,12.10
2023-02-23T11:50:30.116Z,10.80
2023-02-23T11:53:13.852Z,10.90
2023-02-23T11:55:49.797Z,10.50
2023-02-23T11:58:22.835Z,11.10
2023-02-23T12:01:01.650Z,10.70
2023-02-23T12:03:31.510Z,11.40
2023-02-23T12:05:59.701Z,10.90
2023-02-23T12:08:37.714Z,10.90
2023-02-23T12:11:12.627Z,10.90
2023-02-23T12:13:54.262Z,11.90
2023-02-23T12:16:31.648Z,10.80
2023-02-23T12:19:32.891Z,10.90
2023-02-23T12:22:06.685Z,11.30
2023-02-23T12:24:37.674Z,10.90
2023-02-23T12:27:16.098Z,12.50
2023-02-23T12:29:53.136Z,12.10
2023-02-23T12:32:29.743Z,12.30
2023-02-23T12:35:00.701Z,12.00
2023-02-23T12:37:39.980Z,12.80
2023-02-23T12:40:14.751Z,12.50
2023-02-23T12:42:51.818Z,12.60
2023-02-23T12:45:43.699Z,11.50
2023-02-23T12:48:20.774Z,11.00
2023-02-23T12:50:52.743Z,11.50
2023-02-23T12:53:26.444Z,12.40
2023-02-23T12:56:19.465Z,11.30
2023-02-23T12:59:33.036Z,12.70
2023-02-23T13:02:29.857Z,12.30
2023-02-23T13:05:16.878Z,10.90
2023-02-23T13:08:13.460Z,12.40
2023-02-23T13:10:54.224Z,11.50
2023-02-23T13:13:37.940Z,12.20
2023-02-23T13:16:27.328Z,12.70
2023-02-23T13:19:12.985Z,13.30
2023-02-23T13:21:54.231Z,11.70
2023-02-23T13:24:24.763Z,12.60
2023-02-23T13:27:00.525Z,12.50
2023-02-23T13:29:38.077Z,14.40
2023-02-23T13:32:14.179Z,13.50
2023-02-23T13:34:50.161Z,13.60
2023-02-23T13:37:21.281Z,14.20
2023-02-23T13:39:58.897Z,15.20
2023-02-23T13:42:41.963Z,12.40
2023-02-23T13:45:24.443Z,13.00
2023-02-23T13:48:31.557Z,14.00
2023-02-23T13:51:18.480Z,11.70
2023-02-23T13:54:06.708Z,14.20
2023-02-23T13:56:41.358Z,13.10
2023-02-23T13:59:15.877Z,11.60
2023-02-23T14:01:45.522Z,14.70
2023-02-23T14:04:36.913Z,13.20
2023-02-23T14:07:11.499Z,13.80
2023-02-23T14:10:06.613Z,14.10
2023-02-23T14:12:36.296Z,13.00
2023-02-23T14:15:27.418Z,11.90
2023-02-23T14:17:59.786Z,13.40
2023-02-23T14:20:39.943Z,11.10
2023-02-23T14:23:19.891Z,11.30
2023-02-23T14:25:50.576Z,13.40
2023-02-23T14:28:32.781Z,12.50
2023-02-23T14:31:16.304Z,12.50
2023-02-23T14:33:48.679Z,13.50
2023-02-23T14:36:43.982Z,12.60
2023-02-23T14:39:18.038Z,14.10
2023-02-23T14:41:55.740Z,15.00
2023-02-23T14:44:41.421Z,11.50
2023-02-23T14:47:14.596Z,15.20
2023-02-23T14:50:04.498Z,15.20
2023-02-23T14:52:35.161Z,13.70
2023-02-23T14:55:22.562Z,14.50
2023-02-23T14:57:51.068Z,11.70
2023-02-23T15:00:27.361Z,14.30
2023-02-23T15:02:56.972Z,14.20
2023-02-23T15:05:30.700Z,13.50
2023-02-23T15:08:00.366Z,14.90
2023-02-23T15:10:30.515Z,14.30
2023-02-23T15:12:58.753Z,15.40
2023-02-23T15:15:27.197Z,16.90
2023-02-23T15:17:57.961Z,15.60
2023-02-23T15:20:32.741Z,15.50
2023-02-23T15:23:02.688Z,13.70
2023-02-23T15:25:38.735Z,15.00
2023-02-23T15:28:25.430Z,15.00
2023-02-23T15:30:55.149Z,15.90
2023-02-23T15:33:29.216Z,14.80
2023-02-23T15:36:15.465Z,14.60
2023-02-23T15:38:45.425Z,16.20
2023-02-23T15:41:26.618Z,14.50
2023-02-23T15:44:24.309Z,15.20
2023-02-23T15:47:01.305Z,16.00
2023-02-23T15:49:34.155Z,14.30
2023-02-23T15:52:07.706Z,13.10
2023-02-23T15:54:52.771Z,15.30
2023-02-23T15:57:26.118Z,18.00
2023-02-23T15:59:59.167Z,16.60
2023-02-23T16:02:27.345Z,14.80
2023-02-23T16:04:58.060Z,17.70
2023-02-23T16:07:29.031Z,15.60
2023-02-23T16:10:18.598Z,17.70
2023-02-23T16:12:48.528Z,17.40
2023-02-23T16:15:29.816Z,16.40
2023-02-23T16:17:59.706Z,14.40
2023-02-23T16:20:29.433Z,14.30
2023-02-23T16:22:58.212Z,15.10
2023-02-23T16:25:26.963Z,14.50
2023-02-23T16:28:03.679Z,16.50
2023-02-23T16:30:32.334Z,17.00
2023-02-23T16:33:23.242Z,15.60
2023-02-23T16:36:08.589Z,15.30
2023-02-23T16:39:12.323Z,22.30
2023-02-23T16:41:41.674Z,29.00
2023-02-23T16:44:13.993Z,33.00
2023-02-23T16:46:51.273Z,29.90
2023-02-23T16:49:20.010Z,24.30
2023-02-23T16:51:48.312Z,19.70
2023-02-23T16:54:16.665Z,19.00
2023-02-23T16:56:46.830Z,17.40
2023-02-23T16:59:16.881Z,15.30
2023-02-23T17:01:49.436Z,13.20
2023-02-23T17:04:18.873Z,15.70
2023-02-23T17:06:55.767Z,14.10
2023-02-23T17:09:24.565Z,15.80
2023-02-23T17:11:52.694Z,17.30
2023-02-23T17:14:28.255Z,15.60
2023-02-23T17:16:56.498Z,15.70
2023-02-23T17:19:26.016Z,16.20
2023-02-23T17:21:54.431Z,16.40
2023-02-23T17:24:26.321Z,14.30
2023-02-23T17:26:55.516Z,14.90
2023-02-23T17:29:24.561Z,14.40
2023-02-23T17:31:53.122Z,15.30
2023-02-23T17:34:21.502Z,15.20
2023-02-23T17:36:49.816Z,13.60
2023-02-23T17:39:18.599Z,14.00
2023-02-23T17:41:47.075Z,13.50
2023-02-23T17:44:15.234Z,14.80
2023-02-23T17:46:43.252Z,15.00
2023-02-23T17:49:11.276Z,16.20
2023-02-23T17:51:39.495Z,13.40
2023-02-23T17:54:07.501Z,16.10
2023-02-23T17:56:35.704Z,15.80
2023-02-23T17:59:04.750Z,15.20
2023-02-23T18:01:32.956Z,15.90
2023-02-23T18:04:01.248Z,15.10
2023-02-23T18:06:30.709Z,17.30
2023-02-23T18:08:58.844Z,16.90
2023-02-23T18:11:27.365Z,17.90
2023-02-23T18:13:55.641Z,17.40
2023-02-23T18:16:24.508Z,17.00
2023-02-23T18:18:53.846Z,20.60
2023-02-23T18:21:22.526Z,19.10
2023-02-23T18:23:50.818Z,20.80
2023-02-23T18:26:20.902Z,21.50
2023-02-23T18:28:49.250Z,20.20
2023-02-23T18:31:25.461Z,21.20
2023-02-23T18:33:54.090Z,18.80
2023-02-23T18:36:23.315Z,19.20
2023-02-23T18:38:51.666Z,19.50
2023-02-23T18:41:19.709Z,21.10
2023-02-23T18:43:47.900Z,18.80
2023-02-23T18:46:16.583Z,20.60
2023-02-23T18:48:44.665Z,19.00
2023-02-23T18:51:14.685Z,18.50
2023-02-23T18:53:42.907Z,18.50
2023-02-23T18:56:16.214Z,18.60
2023-02-23T18:58:44.797Z,19.80
2023-02-23T19:01:18.641Z,19.80
2023-02-23T19:03:50.923Z,21.00
2023-02-23T19:06:23.222Z,19.70
2023-02-23T19:08:54.436Z,19.10
2023-02-23T19:11:24.423Z,18.10
2023-02-23T19:13:56.826Z,18.10
2023-02-23T19:16:30.293Z,19.10
2023-02-23T19:18:59.610Z,19.50
2023-02-23T19:21:27.822Z,20.30
2023-02-23T19:23:58.039Z,19.70
2023-02-23T19:26:26.706Z,16.60
2023-02-23T19:28:54.825Z,17.10
2023-02-23T19:31:26.053Z,18.20
2023-02-23T19:33:55.912Z,19.40
2023-02-23T19:36:29.694Z,19.10
2023-02-23T19:39:10.779Z,19.10
2023-02-23T19:41:39.725Z,18.50
2023-02-23T19:44:08.030Z,19.50
2023-02-23T19:46:36.825Z,21.50
2023-02-23T19:49:04.996Z,22.40
2023-02-23T19:51:33.148Z,22.80
2023-02-23T19:54:01.553Z,23.10
2023-02-23T19:56:29.705Z,22.80
2023-02-23T19:58:58.173Z,22.90
2023-02-23T20:01:30.097Z,19.00
2023-02-23T20:04:02.438Z,19.90
2023-02-23T20:06:32.139Z,21.80
2023-02-23T20:09:01.356Z,20.70
2023-02-23T20:11:32.658Z,20.70
2023-02-23T20:14:03.196Z,20.90
2023-02-23T20:16:31.518Z,21.70
2023-02-23T20:18:59.871Z,19.90
2023-02-23T20:21:28.669Z,20.20
2023-02-23T20:23:56.786Z,19.90
2023-02-23T20:26:28.013Z,20.40
2023-02-23T20:28:56.929Z,18.90
2023-02-23T20:31:31.585Z,20.50
2023-02-23T20:34:02.028Z,22.70
2023-02-23T20:36:30.502Z,22.70
2023-02-23T20:38:58.651Z,19.70
2023-02-23T20:41:28.197Z,21.40
2023-02-23T20:43:56.604Z,20.50
2023-02-23T20:46:24.890Z,23.60
2023-02-23T20:48:52.915Z,22.50
2023-02-23T20:51:23.452Z,20.30
2023-02-23T20:53:54.056Z,19.80
2023-02-23T20:56:22.525Z,21.50
2023-02-23T20:58:54.749Z,20.20
2023-02-23T21:01:26.357Z,23.90
2023-02-23T21:03:55.207Z,22.10
2023-02-23T21:06:26.565Z,21.10
2023-02-23T21:08:56.010Z,22.20
2023-02-23T21:11:27.013Z,22.40
2023-02-23T21:13:55.066Z,21.60
2023-02-23T21:16:32.525Z,24.90
2023-02-23T21:19:07.984Z,22.30
2023-02-23T21:21:46.790Z,22.70
2023-02-23T21:24:15.907Z,21.10
2023-02-23T21:26:44.690Z,21.90
2023-02-23T21:29:16.443Z,22.80
2023-02-23T21:31:46.941Z,23.30
2023-02-23T21:34:21.378Z,21.60
2023-02-23T21:36:51.442Z,22.20
2023-02-23T21:39:19.573Z,23.10
2023-02-23T21:41:50.328Z,23.40
2023-02-23T21:44:21.466Z,22.60
2023-02-23T21:46:53.133Z,24.30
2023-02-23T21:49:22.454Z,20.90
2023-02-23T21:51:54.164Z,22.50
2023-02-23T21:54:23.718Z,24.80
2023-02-23T21:56:52.029Z,22.60
2023-02-23T21:59:20.870Z,26.10
2023-02-23T22:01:49.326Z,24.20
2023-02-23T22:04:17.486Z,24.90
2023-02-23T22:06:45.798Z,25.00
2023-02-23T22:09:17.034Z,25.80
2023-02-23T22:11:46.466Z,21.90
2023-02-23T22:14:18.195Z,24.40
2023-02-23T22:16:46.841Z,25.40
2023-02-23T22:19:16.613Z,26.00
2023-02-23T22:21:45.379Z,25.10
2023-02-23T22:24:14.503Z,24.30
2023-02-23T22:26:54.593Z,25.70
2023-02-23T22:29:23.841Z,22.70
2023-02-23T22:31:52.040Z,23.70
2023-02-23T22:34:20.214Z,25.20
2023-02-23T22:36:48.812Z,26.00
2023-02-23T22:39:18.963Z,24.90
2023-02-23T22:41:47.358Z,22.80
2023-02-23T22:44:18.911Z,24.40
2023-02-23T22:46:48.487Z,26.40
2023-02-23T22:49:16.835Z,19.30
2023-02-23T22:51:45.104Z,27.70
2023-02-23T22:54:13.962Z,28.50
2023-02-23T22:56:42.486Z,24.20
2023-02-23T22:59:11.203Z,26.50
2023-02-23T23:01:39.745Z,25.70
2023-02-23T23:04:10.920Z,28.90
2023-02-23T23:06:40.385Z,26.90
2023-02-23T23:09:12.168Z,24.90
2023-02-23T23:11:43.420Z,27.50
2023-02-23T23:14:11.677Z,27.80
2023-02-23T23:16:48.295Z,25.70
2023-02-23T23:19:19.206Z,25.40
2023-02-23T23:21:47.293Z,28.90
2023-02-23T23:24:15.986Z,23.20
2023-02-23T23:26:44.539Z,29.20
2023-02-23T23:29:14.004Z,28.60
2023-02-23T23:31:45.947Z,31.20
2023-02-23T23:34:16.787Z,30.60
2023-02-23T23:36:53.475Z,31.00
2023-02-23T23:39:22.697Z,29.10
2023-02-23T23:41:50.827Z,25.20
2023-02-23T23:44:21.288Z,21.30
2023-02-23T23:46:50.943Z,29.70
2023-02-23T23:49:25.647Z,29.20
2023-02-23T23:51:56.416Z,25.20
2023-02-23T23:54:30.977Z,28.20
2023-02-23T23:57:01.500Z,28.10
2023-02-23T23:59:30.086Z,29.80
